sensor_id;sensor_type;location;lat;lon;timestamp;temperature;humidity
22827;DHT22;11580;52.562;13.418;2024-01-11T00:01:51;-1.60;24.00
22827;DHT22;11580;52.562;13.418;2024-01-11T00:04:18;-1.70;23.50
22827;DHT22;11580;52.562;13.418;2024-01-11T00:06:45;-1.60;23.60
22827;DHT22;11580;52.562;13.418;2024-01-11T00:09:13;-1.70;23.60
22827;DHT22;11580;52.562;13.418;2024-01-11T00:11:40;-1.70;23.80
22827;DHT22;11580;52.562;13.418;2024-01-11T00:14:07;-1.70;23.90
22827;DHT22;11580;52.562;13.418;2024-01-11T00:16:34;-1.60;24.20
22827;DHT22;11580;52.562;13.418;2024-01-11T00:19:03;-1.60;24.30
22827;DHT22;11580;52.562;13.418;2024-01-11T00:21:30;-1.50;24.80
22827;DHT22;11580;52.562;13.418;2024-01-11T00:23:57;-1.50;24.30
22827;DHT22;11580;52.562;13.418;2024-01-11T00:26:24;-1.50;24.40
22827;DHT22;11580;52.562;13.418;2024-01-11T00:28:51;-1.40;24.60
22827;DHT22;11580;52.562;13.418;2024-01-11T00:31:18;-1.40;25.10
22827;DHT22;11580;52.562;13.418;2024-01-11T00:33:46;-1.30;24.60
22827;DHT22;11580;52.562;13.418;2024-01-11T00:36:18;-1.30;25.20
22827;DHT22;11580;52.562;13.418;2024-01-11T00:38:46;-1.20;25.00
22827;DHT22;11580;52.562;13.418;2024-01-11T00:41:13;-1.20;25.40
22827;DHT22;11580;52.562;13.418;2024-01-11T00:43:41;-1.20;25.50
22827;DHT22;11580;52.562;13.418;2024-01-11T00:46:08;-1.10;25.10
22827;DHT22;11580;52.562;13.418;2024-01-11T00:48:35;-1.10;25.20
22827;DHT22;11580;52.562;13.418;2024-01-11T00:51:04;-1.00;25.40
22827;DHT22;11580;52.562;13.418;2024-01-11T00:53:33;-1.00;25.30
22827;DHT22;11580;52.562;13.418;2024-01-11T00:56:00;-0.90;25.40
22827;DHT22;11580;52.562;13.418;2024-01-11T00:58:27;-0.80;25.40
22827;DHT22;11580;52.562;13.418;2024-01-11T01:00:55;-0.80;25.40
22827;DHT22;11580;52.562;13.418;2024-01-11T01:03:22;-0.70;25.30
22827;DHT22;11580;52.562;13.418;2024-01-11T01:05:49;-0.60;25.90
22827;DHT22;11580;52.562;13.418;2024-01-11T01:08:16;-0.70;25.30
22827;DHT22;11580;52.562;13.418;2024-01-11T01:10:45;-0.60;25.40
22827;DHT22;11580;52.562;13.418;2024-01-11T01:13:12;-0.60;25.40
22827;DHT22;11580;52.562;13.418;2024-01-11T01:15:39;-0.50;25.40
22827;DHT22;11580;52.562;13.418;2024-01-11T01:18:07;-0.50;25.40
22827;DHT22;11580;52.562;13.418;2024-01-11T01:20:34;-0.40;25.40
22827;DHT22;11580;52.562;13.418;2024-01-11T01:23:01;-0.40;25.40
22827;DHT22;11580;52.562;13.418;2024-01-11T01:25:28;-0.40;25.30
22827;DHT22;11580;52.562;13.418;2024-01-11T01:27:57;-0.30;25.80
22827;DHT22;11580;52.562;13.418;2024-01-11T01:30:25;-0.30;25.30
22827;DHT22;11580;52.562;13.418;2024-01-11T01:32:52;-0.30;25.10
22827;DHT22;11580;52.562;13.418;2024-01-11T01:35:19;-0.30;25.10
22827;DHT22;11580;52.562;13.418;2024-01-11T01:37:47;-0.30;25.10
22827;DHT22;11580;52.562;13.418;2024-01-11T01:40:14;-0.20;25.10
22827;DHT22;11580;52.562;13.418;2024-01-11T01:42:42;-0.30;25.10
22827;DHT22;11580;52.562;13.418;2024-01-11T01:45:12;-0.20;25.20
22827;DHT22;11580;52.562;13.418;2024-01-11T01:47:40;-0.20;25.20
22827;DHT22;11580;52.562;13.418;2024-01-11T01:50:10;-0.20;25.20
22827;DHT22;11580;52.562;13.418;2024-01-11T01:52:40;-0.10;25.30
22827;DHT22;11580;52.562;13.418;2024-01-11T01:55:10;-0.10;25.20
22827;DHT22;11580;52.562;13.418;2024-01-11T01:57:41;-0.10;25.80
22827;DHT22;11580;52.562;13.418;2024-01-11T02:00:12;-0.10;25.20
22827;DHT22;11580;52.562;13.418;2024-01-11T02:02:43;-0.10;25.10
22827;DHT22;11580;52.562;13.418;2024-01-11T02:05:13;0.10;25.20
22827;DHT22;11580;52.562;13.418;2024-01-11T02:07:41;0.00;25.10
22827;DHT22;11580;52.562;13.418;2024-01-11T02:10:09;-0.10;25.50
22827;DHT22;11580;52.562;13.418;2024-01-11T02:12:36;-0.10;25.50
22827;DHT22;11580;52.562;13.418;2024-01-11T02:15:04;-0.10;25.00
22827;DHT22;11580;52.562;13.418;2024-01-11T02:17:33;-0.10;25.00
22827;DHT22;11580;52.562;13.418;2024-01-11T02:20:01;-0.10;25.60
22827;DHT22;11580;52.562;13.418;2024-01-11T02:22:32;-0.10;25.70
22827;DHT22;11580;52.562;13.418;2024-01-11T02:25:03;-0.10;25.40
22827;DHT22;11580;52.562;13.418;2024-01-11T02:27:30;-0.10;25.50
22827;DHT22;11580;52.562;13.418;2024-01-11T02:29:57;-0.10;25.50
22827;DHT22;11580;52.562;13.418;2024-01-11T02:32:24;-0.10;25.60
22827;DHT22;11580;52.562;13.418;2024-01-11T02:34:52;-0.10;25.60
22827;DHT22;11580;52.562;13.418;2024-01-11T02:37:19;-0.10;26.20
22827;DHT22;11580;52.562;13.418;2024-01-11T02:39:46;-0.10;25.70
22827;DHT22;11580;52.562;13.418;2024-01-11T02:42:15;0.00;25.70
22827;DHT22;11580;52.562;13.418;2024-01-11T02:44:42;-0.10;25.90
22827;DHT22;11580;52.562;13.418;2024-01-11T02:47:09;0.00;25.90
22827;DHT22;11580;52.562;13.418;2024-01-11T02:49:37;0.00;26.50
22827;DHT22;11580;52.562;13.418;2024-01-11T02:52:05;0.00;26.00
22827;DHT22;11580;52.562;13.418;2024-01-11T02:54:32;0.00;26.00
22827;DHT22;11580;52.562;13.418;2024-01-11T02:56:59;0.00;26.00
22827;DHT22;11580;52.562;13.418;2024-01-11T02:59:27;0.10;26.10
22827;DHT22;11580;52.562;13.418;2024-01-11T03:01:55;0.20;26.20
22827;DHT22;11580;52.562;13.418;2024-01-11T03:04:22;0.10;26.20
22827;DHT22;11580;52.562;13.418;2024-01-11T03:06:49;0.10;26.20
22827;DHT22;11580;52.562;13.418;2024-01-11T03:09:16;0.10;26.10
22827;DHT22;11580;52.562;13.418;2024-01-11T03:11:43;0.20;26.00
22827;DHT22;11580;52.562;13.418;2024-01-11T03:14:10;0.20;25.90
22827;DHT22;11580;52.562;13.418;2024-01-11T03:16:39;0.20;25.80
22827;DHT22;11580;52.562;13.418;2024-01-11T03:19:07;0.20;25.90
22827;DHT22;11580;52.562;13.418;2024-01-11T03:21:34;0.10;25.90
22827;DHT22;11580;52.562;13.418;2024-01-11T03:24:01;0.20;26.60
22827;DHT22;11580;52.562;13.418;2024-01-11T03:26:28;0.20;26.00
22827;DHT22;11580;52.562;13.418;2024-01-11T03:28:56;0.20;26.00
22827;DHT22;11580;52.562;13.418;2024-01-11T03:31:23;0.10;26.00
22827;DHT22;11580;52.562;13.418;2024-01-11T03:33:51;0.20;26.50
22827;DHT22;11580;52.562;13.418;2024-01-11T03:36:22;0.20;26.00
22827;DHT22;11580;52.562;13.418;2024-01-11T03:38:50;0.20;26.60
22827;DHT22;11580;52.562;13.418;2024-01-11T03:41:17;0.20;26.10
22827;DHT22;11580;52.562;13.418;2024-01-11T03:43:45;0.20;26.20
22827;DHT22;11580;52.562;13.418;2024-01-11T03:46:12;0.20;26.30
22827;DHT22;11580;52.562;13.418;2024-01-11T03:48:39;0.20;26.40
22827;DHT22;11580;52.562;13.418;2024-01-11T03:51:07;0.20;27.00
22827;DHT22;11580;52.562;13.418;2024-01-11T03:53:35;0.20;26.60
22827;DHT22;11580;52.562;13.418;2024-01-11T03:56:03;0.30;26.70
22827;DHT22;11580;52.562;13.418;2024-01-11T03:58:31;0.30;26.80
22827;DHT22;11580;52.562;13.418;2024-01-11T04:00:58;0.40;26.90
22827;DHT22;11580;52.562;13.418;2024-01-11T04:03:26;0.40;26.90
22827;DHT22;11580;52.562;13.418;2024-01-11T04:05:53;0.50;27.10
22827;DHT22;11580;52.562;13.418;2024-01-11T04:08:22;0.60;27.20
22827;DHT22;11580;52.562;13.418;2024-01-11T04:10:49;0.60;27.80
22827;DHT22;11580;52.562;13.418;2024-01-11T04:13:16;0.70;27.30
22827;DHT22;11580;52.562;13.418;2024-01-11T04:15:44;0.70;27.30
22827;DHT22;11580;52.562;13.418;2024-01-11T04:18:11;0.80;27.40
22827;DHT22;11580;52.562;13.418;2024-01-11T04:20:38;0.90;27.40
22827;DHT22;11580;52.562;13.418;2024-01-11T04:23:05;1.00;27.40
22827;DHT22;11580;52.562;13.418;2024-01-11T04:25:35;1.10;27.40
22827;DHT22;11580;52.562;13.418;2024-01-11T04:28:02;1.10;27.20
22827;DHT22;11580;52.562;13.418;2024-01-11T04:30:31;1.20;27.10
22827;DHT22;11580;52.562;13.418;2024-01-11T04:32:58;1.20;27.00
22827;DHT22;11580;52.562;13.418;2024-01-11T04:35:26;1.20;26.90
22827;DHT22;11580;52.562;13.418;2024-01-11T04:37:53;1.30;27.00
22827;DHT22;11580;52.562;13.418;2024-01-11T04:40:20;1.30;27.00
22827;DHT22;11580;52.562;13.418;2024-01-11T04:42:49;1.30;27.50
22827;DHT22;11580;52.562;13.418;2024-01-11T04:45:16;1.30;27.00
22827;DHT22;11580;52.562;13.418;2024-01-11T04:47:43;1.30;27.00
22827;DHT22;11580;52.562;13.418;2024-01-11T04:50:10;1.30;27.00
22827;DHT22;11580;52.562;13.418;2024-01-11T04:52:37;1.30;27.10
22827;DHT22;11580;52.562;13.418;2024-01-11T04:55:05;1.30;27.20
22827;DHT22;11580;52.562;13.418;2024-01-11T04:57:32;1.40;27.40
22827;DHT22;11580;52.562;13.418;2024-01-11T05:00:01;1.40;27.50
22827;DHT22;11580;52.562;13.418;2024-01-11T05:02:28;1.40;27.50
22827;DHT22;11580;52.562;13.418;2024-01-11T05:04:55;1.50;27.60
22827;DHT22;11580;52.562;13.418;2024-01-11T05:07:23;1.50;28.20
22827;DHT22;11580;52.562;13.418;2024-01-11T05:09:50;1.60;27.70
22827;DHT22;11580;52.562;13.418;2024-01-11T05:12:17;1.70;27.70
22827;DHT22;11580;52.562;13.418;2024-01-11T05:14:44;1.70;27.60
22827;DHT22;11580;52.562;13.418;2024-01-11T05:17:13;1.80;28.00
22827;DHT22;11580;52.562;13.418;2024-01-11T05:19:40;1.80;27.40
22827;DHT22;11580;52.562;13.418;2024-01-11T05:22:07;1.80;27.90
22827;DHT22;11580;52.562;13.418;2024-01-11T05:24:34;1.90;28.00
22827;DHT22;11580;52.562;13.418;2024-01-11T05:27:01;1.90;27.50
22827;DHT22;11580;52.562;13.418;2024-01-11T05:29:28;1.90;27.40
22827;DHT22;11580;52.562;13.418;2024-01-11T05:31:55;1.90;27.50
22827;DHT22;11580;52.562;13.418;2024-01-11T05:34:24;1.90;28.00
22827;DHT22;11580;52.562;13.418;2024-01-11T05:36:51;1.90;27.50
22827;DHT22;11580;52.562;13.418;2024-01-11T05:39:18;2.00;27.60
22827;DHT22;11580;52.562;13.418;2024-01-11T05:41:45;2.00;27.60
22827;DHT22;11580;52.562;13.418;2024-01-11T05:44:13;2.00;27.70
22827;DHT22;11580;52.562;13.418;2024-01-11T05:46:40;2.00;28.20
22827;DHT22;11580;52.562;13.418;2024-01-11T05:49:07;2.10;27.70
22827;DHT22;11580;52.562;13.418;2024-01-11T05:51:35;2.10;28.20
22827;DHT22;11580;52.562;13.418;2024-01-11T05:54:02;2.20;28.30
22827;DHT22;11580;52.562;13.418;2024-01-11T05:56:29;2.20;27.70
22827;DHT22;11580;52.562;13.418;2024-01-11T05:58:56;2.20;27.70
22827;DHT22;11580;52.562;13.418;2024-01-11T06:01:24;2.30;27.80
22827;DHT22;11580;52.562;13.418;2024-01-11T06:03:51;2.30;27.80
22827;DHT22;11580;52.562;13.418;2024-01-11T06:06:18;2.30;27.70
22827;DHT22;11580;52.562;13.418;2024-01-11T06:08:47;2.40;27.80
22827;DHT22;11580;52.562;13.418;2024-01-11T06:11:14;2.40;28.20
22827;DHT22;11580;52.562;13.418;2024-01-11T06:13:43;2.40;27.70
22827;DHT22;11580;52.562;13.418;2024-01-11T06:16:11;2.40;28.20
22827;DHT22;11580;52.562;13.418;2024-01-11T06:18:38;2.40;27.70
22827;DHT22;11580;52.562;13.418;2024-01-11T06:21:05;2.50;27.90
22827;DHT22;11580;52.562;13.418;2024-01-11T06:23:32;2.50;27.90
22827;DHT22;11580;52.562;13.418;2024-01-11T06:26:01;2.50;27.90
22827;DHT22;11580;52.562;13.418;2024-01-11T06:28:28;2.50;28.00
22827;DHT22;11580;52.562;13.418;2024-01-11T06:30:55;2.60;27.90
22827;DHT22;11580;52.562;13.418;2024-01-11T06:33:22;2.60;27.80
22827;DHT22;11580;52.562;13.418;2024-01-11T06:35:50;2.60;27.80
22827;DHT22;11580;52.562;13.418;2024-01-11T06:38:17;2.70;27.90
22827;DHT22;11580;52.562;13.418;2024-01-11T06:40:44;2.70;27.90
22827;DHT22;11580;52.562;13.418;2024-01-11T06:43:12;2.70;28.00
22827;DHT22;11580;52.562;13.418;2024-01-11T06:45:40;2.70;28.00
22827;DHT22;11580;52.562;13.418;2024-01-11T06:48:08;2.70;28.00
22827;DHT22;11580;52.562;13.418;2024-01-11T06:50:36;2.70;28.60
22827;DHT22;11580;52.562;13.418;2024-01-11T06:53:03;2.80;28.20
22827;DHT22;11580;52.562;13.418;2024-01-11T06:55:31;2.80;28.20
22827;DHT22;11580;52.562;13.418;2024-01-11T06:57:58;2.80;28.30
22827;DHT22;11580;52.562;13.418;2024-01-11T07:00:28;2.80;28.30
22827;DHT22;11580;52.562;13.418;2024-01-11T07:02:56;2.90;28.40
22827;DHT22;11580;52.562;13.418;2024-01-11T07:05:23;2.90;28.30
22827;DHT22;11580;52.562;13.418;2024-01-11T07:07:50;3.00;28.40
22827;DHT22;11580;52.562;13.418;2024-01-11T07:10:16;3.00;28.90
22827;DHT22;11580;52.562;13.418;2024-01-11T07:12:43;3.00;28.30
22827;DHT22;11580;52.562;13.418;2024-01-11T07:15:13;3.10;28.30
22827;DHT22;11580;52.562;13.418;2024-01-11T07:17:42;3.10;28.30
22827;DHT22;11580;52.562;13.418;2024-01-11T07:20:10;3.10;28.20
22827;DHT22;11580;52.562;13.418;2024-01-11T07:22:38;3.10;28.10
22827;DHT22;11580;52.562;13.418;2024-01-11T07:25:06;3.10;28.10
22827;DHT22;11580;52.562;13.418;2024-01-11T07:27:34;3.10;28.20
22827;DHT22;11580;52.562;13.418;2024-01-11T07:30:01;3.10;28.30
22827;DHT22;11580;52.562;13.418;2024-01-11T07:32:29;3.10;28.40
22827;DHT22;11580;52.562;13.418;2024-01-11T07:34:57;3.10;28.90
22827;DHT22;11580;52.562;13.418;2024-01-11T07:37:24;3.20;28.40
22827;DHT22;11580;52.562;13.418;2024-01-11T07:39:53;3.20;28.40
22827;DHT22;11580;52.562;13.418;2024-01-11T07:42:20;3.30;28.50
22827;DHT22;11580;52.562;13.418;2024-01-11T07:44:47;3.20;29.00
22827;DHT22;11580;52.562;13.418;2024-01-11T07:47:14;3.20;28.50
22827;DHT22;11580;52.562;13.418;2024-01-11T07:49:43;3.20;28.60
22827;DHT22;11580;52.562;13.418;2024-01-11T07:52:11;3.20;28.60
22827;DHT22;11580;52.562;13.418;2024-01-11T07:54:38;3.30;28.60
22827;DHT22;11580;52.562;13.418;2024-01-11T07:57:06;3.30;29.10
22827;DHT22;11580;52.562;13.418;2024-01-11T07:59:33;3.30;29.20
22827;DHT22;11580;52.562;13.418;2024-01-11T08:02:01;3.30;28.80
22827;DHT22;11580;52.562;13.418;2024-01-11T08:04:29;3.30;28.90
22827;DHT22;11580;52.562;13.418;2024-01-11T08:06:56;3.30;28.90
22827;DHT22;11580;52.562;13.418;2024-01-11T08:09:26;3.30;29.00
22827;DHT22;11580;52.562;13.418;2024-01-11T08:11:53;3.40;29.20
22827;DHT22;11580;52.562;13.418;2024-01-11T08:14:21;3.40;29.10
22827;DHT22;11580;52.562;13.418;2024-01-11T08:16:48;3.50;29.10
22827;DHT22;11580;52.562;13.418;2024-01-11T08:19:15;3.50;29.10
22827;DHT22;11580;52.562;13.418;2024-01-11T08:21:42;3.50;29.10
22827;DHT22;11580;52.562;13.418;2024-01-11T08:24:09;3.60;29.20
22827;DHT22;11580;52.562;13.418;2024-01-11T08:26:38;3.60;29.60
22827;DHT22;11580;52.562;13.418;2024-01-11T08:29:05;3.60;29.60
22827;DHT22;11580;52.562;13.418;2024-01-11T08:31:33;3.70;29.10
22827;DHT22;11580;52.562;13.418;2024-01-11T08:34:00;3.70;29.60
22827;DHT22;11580;52.562;13.418;2024-01-11T08:36:31;3.70;29.70
22827;DHT22;11580;52.562;13.418;2024-01-11T08:39:01;3.70;29.20
22827;DHT22;11580;52.562;13.418;2024-01-11T08:41:31;3.70;29.30
22827;DHT22;11580;52.562;13.418;2024-01-11T08:43:59;3.80;29.40
22827;DHT22;11580;52.562;13.418;2024-01-11T08:46:28;3.80;29.40
22827;DHT22;11580;52.562;13.418;2024-01-11T08:48:56;3.90;29.50
22827;DHT22;11580;52.562;13.418;2024-01-11T08:51:23;3.90;29.40
22827;DHT22;11580;52.562;13.418;2024-01-11T08:53:51;3.90;29.90
22827;DHT22;11580;52.562;13.418;2024-01-11T08:56:18;4.00;29.40
22827;DHT22;11580;52.562;13.418;2024-01-11T08:58:45;4.00;29.40
22827;DHT22;11580;52.562;13.418;2024-01-11T09:01:15;4.10;29.50
22827;DHT22;11580;52.562;13.418;2024-01-11T09:03:43;4.10;29.60
22827;DHT22;11580;52.562;13.418;2024-01-11T09:06:10;4.20;29.90
22827;DHT22;11580;52.562;13.418;2024-01-11T09:08:38;4.30;30.00
22827;DHT22;11580;52.562;13.418;2024-01-11T09:11:06;4.30;30.00
22827;DHT22;11580;52.562;13.418;2024-01-11T09:13:33;4.40;30.00
22827;DHT22;11580;52.562;13.418;2024-01-11T09:16:01;4.60;29.90
22827;DHT22;11580;52.562;13.418;2024-01-11T09:18:29;4.60;30.30
22827;DHT22;11580;52.562;13.418;2024-01-11T09:20:56;4.50;29.50
22827;DHT22;11580;52.562;13.418;2024-01-11T09:23:23;4.80;29.50
22827;DHT22;11580;52.562;13.418;2024-01-11T09:25:50;4.90;29.40
22827;DHT22;11580;52.562;13.418;2024-01-11T09:28:17;4.90;29.70
22827;DHT22;11580;52.562;13.418;2024-01-11T09:30:45;4.90;29.10
22827;DHT22;11580;52.562;13.418;2024-01-11T09:33:12;5.00;29.20
22827;DHT22;11580;52.562;13.418;2024-01-11T09:35:40;5.00;29.20
22827;DHT22;11580;52.562;13.418;2024-01-11T09:38:08;5.00;29.10
22827;DHT22;11580;52.562;13.418;2024-01-11T09:40:37;5.10;29.30
22827;DHT22;11580;52.562;13.418;2024-01-11T09:43:04;5.10;29.10
22827;DHT22;11580;52.562;13.418;2024-01-11T09:45:36;5.10;29.00
22827;DHT22;11580;52.562;13.418;2024-01-11T09:48:05;5.10;28.90
22827;DHT22;11580;52.562;13.418;2024-01-11T09:50:33;5.10;28.80
22827;DHT22;11580;52.562;13.418;2024-01-11T09:53:03;5.10;28.80
22827;DHT22;11580;52.562;13.418;2024-01-11T09:55:33;5.10;28.80
22827;DHT22;11580;52.562;13.418;2024-01-11T09:58:03;5.10;28.90
22827;DHT22;11580;52.562;13.418;2024-01-11T10:00:31;5.10;28.90
22827;DHT22;11580;52.562;13.418;2024-01-11T10:02:59;5.10;28.90
22827;DHT22;11580;52.562;13.418;2024-01-11T10:05:27;5.10;29.50
22827;DHT22;11580;52.562;13.418;2024-01-11T10:07:56;5.10;29.60
22827;DHT22;11580;52.562;13.418;2024-01-11T10:10:24;5.10;29.20
22827;DHT22;11580;52.562;13.418;2024-01-11T10:12:53;5.20;29.90
22827;DHT22;11580;52.562;13.418;2024-01-11T10:15:24;5.10;29.30
22827;DHT22;11580;52.562;13.418;2024-01-11T10:17:51;5.10;29.30
22827;DHT22;11580;52.562;13.418;2024-01-11T10:20:19;5.10;29.40
22827;DHT22;11580;52.562;13.418;2024-01-11T10:22:49;5.10;29.50
22827;DHT22;11580;52.562;13.418;2024-01-11T10:25:18;5.20;29.50
22827;DHT22;11580;52.562;13.418;2024-01-11T10:27:46;5.20;29.40
22827;DHT22;11580;52.562;13.418;2024-01-11T10:30:15;5.20;29.40
22827;DHT22;11580;52.562;13.418;2024-01-11T10:32:43;5.30;29.50
22827;DHT22;11580;52.562;13.418;2024-01-11T10:35:11;5.30;30.00
22827;DHT22;11580;52.562;13.418;2024-01-11T10:37:38;5.30;30.00
22827;DHT22;11580;52.562;13.418;2024-01-11T10:40:07;5.30;30.00
22827;DHT22;11580;52.562;13.418;2024-01-11T10:42:41;5.40;29.30
22827;DHT22;11580;52.562;13.418;2024-01-11T10:45:15;5.40;29.20
22827;DHT22;11580;52.562;13.418;2024-01-11T10:47:50;5.40;29.10
22827;DHT22;11580;52.562;13.418;2024-01-11T10:50:19;5.30;29.60
22827;DHT22;11580;52.562;13.418;2024-01-11T10:52:58;5.30;29.10
22827;DHT22;11580;52.562;13.418;2024-01-11T10:55:32;5.30;29.00
22827;DHT22;11580;52.562;13.418;2024-01-11T10:58:01;5.30;29.10
22827;DHT22;11580;52.562;13.418;2024-01-11T11:00:29;5.30;29.30
22827;DHT22;11580;52.562;13.418;2024-01-11T11:02:59;5.30;29.80
22827;DHT22;11580;52.562;13.418;2024-01-11T11:05:28;5.30;29.20
22827;DHT22;11580;52.562;13.418;2024-01-11T11:07:56;5.30;29.20
22827;DHT22;11580;52.562;13.418;2024-01-11T11:10:28;5.30;29.80
22827;DHT22;11580;52.562;13.418;2024-01-11T11:12:57;5.20;29.20
22827;DHT22;11580;52.562;13.418;2024-01-11T11:15:27;5.20;29.20
22827;DHT22;11580;52.562;13.418;2024-01-11T11:17:55;5.20;29.80
22827;DHT22;11580;52.562;13.418;2024-01-11T11:20:23;5.20;29.20
22827;DHT22;11580;52.562;13.418;2024-01-11T11:23:03;5.20;29.70
22827;DHT22;11580;52.562;13.418;2024-01-11T11:25:31;5.20;29.20
22827;DHT22;11580;52.562;13.418;2024-01-11T11:27:59;5.10;29.30
22827;DHT22;11580;52.562;13.418;2024-01-11T11:30:31;5.10;29.30
22827;DHT22;11580;52.562;13.418;2024-01-11T11:33:00;5.10;29.40
22827;DHT22;11580;52.562;13.418;2024-01-11T11:35:35;5.10;29.90
22827;DHT22;11580;52.562;13.418;2024-01-11T11:38:02;5.00;29.20
22827;DHT22;11580;52.562;13.418;2024-01-11T11:40:36;5.00;29.30
22827;DHT22;11580;52.562;13.418;2024-01-11T11:43:06;4.90;29.40
22827;DHT22;11580;52.562;13.418;2024-01-11T11:45:34;4.90;29.60
22827;DHT22;11580;52.562;13.418;2024-01-11T11:51:15;4.90;29.90
22827;DHT22;11580;52.562;13.418;2024-01-11T11:53:47;4.90;29.90
22827;DHT22;11580;52.562;13.418;2024-01-11T11:56:16;4.90;29.90
22827;DHT22;11580;52.562;13.418;2024-01-11T11:58:45;4.90;30.00
22827;DHT22;11580;52.562;13.418;2024-01-11T12:01:15;4.90;30.60
22827;DHT22;11580;52.562;13.418;2024-01-11T12:03:44;5.00;30.10
22827;DHT22;11580;52.562;13.418;2024-01-11T12:06:16;5.00;30.20
22827;DHT22;11580;52.562;13.418;2024-01-11T12:08:44;5.00;30.30
22827;DHT22;11580;52.562;13.418;2024-01-11T12:11:18;5.00;30.30
22827;DHT22;11580;52.562;13.418;2024-01-11T12:13:46;5.10;30.30
22827;DHT22;11580;52.562;13.418;2024-01-11T12:16:15;5.10;30.30
22827;DHT22;11580;52.562;13.418;2024-01-11T12:18:42;5.10;31.00
22827;DHT22;11580;52.562;13.418;2024-01-11T12:21:10;5.10;30.30
22827;DHT22;11580;52.562;13.418;2024-01-11T12:23:38;5.20;30.40
22827;DHT22;11580;52.562;13.418;2024-01-11T12:26:07;5.20;31.00
22827;DHT22;11580;52.562;13.418;2024-01-11T12:28:38;5.20;30.30
22827;DHT22;11580;52.562;13.418;2024-01-11T12:31:07;5.20;30.20
22827;DHT22;11580;52.562;13.418;2024-01-11T12:33:37;5.20;30.20
22827;DHT22;11580;52.562;13.418;2024-01-11T12:36:06;5.20;30.30
22827;DHT22;11580;52.562;13.418;2024-01-11T12:38:34;5.20;30.40
22827;DHT22;11580;52.562;13.418;2024-01-11T12:41:02;5.20;30.40
22827;DHT22;11580;52.562;13.418;2024-01-11T12:43:30;5.30;30.60
22827;DHT22;11580;52.562;13.418;2024-01-11T12:45:57;5.30;30.60
22827;DHT22;11580;52.562;13.418;2024-01-11T12:48:25;5.30;30.80
22827;DHT22;11580;52.562;13.418;2024-01-11T12:50:53;5.30;30.80
22827;DHT22;11580;52.562;13.418;2024-01-11T12:53:22;5.30;30.70
22827;DHT22;11580;52.562;13.418;2024-01-11T12:56:03;5.30;30.80
22827;DHT22;11580;52.562;13.418;2024-01-11T12:58:34;5.40;30.90
22827;DHT22;11580;52.562;13.418;2024-01-11T13:01:01;5.40;31.10
22827;DHT22;11580;52.562;13.418;2024-01-11T13:03:29;5.40;31.20
22827;DHT22;11580;52.562;13.418;2024-01-11T13:05:58;5.50;31.50
22827;DHT22;11580;52.562;13.418;2024-01-11T13:08:25;5.50;32.20
22827;DHT22;11580;52.562;13.418;2024-01-11T13:10:54;5.60;32.20
22827;DHT22;11580;52.562;13.418;2024-01-11T13:13:21;5.60;31.40
22827;DHT22;11580;52.562;13.418;2024-01-11T13:15:48;5.70;31.40
22827;DHT22;11580;52.562;13.418;2024-01-11T13:18:16;5.70;32.10
22827;DHT22;11580;52.562;13.418;2024-01-11T13:20:43;5.70;32.10
22827;DHT22;11580;52.562;13.418;2024-01-11T13:23:16;5.80;32.10
22827;DHT22;11580;52.562;13.418;2024-01-11T13:25:46;5.80;31.20
22827;DHT22;11580;52.562;13.418;2024-01-11T13:28:15;5.80;31.30
22827;DHT22;11580;52.562;13.418;2024-01-11T13:30:45;5.90;31.20
22827;DHT22;11580;52.562;13.418;2024-01-11T13:33:12;5.90;32.00
22827;DHT22;11580;52.562;13.418;2024-01-11T13:35:41;5.90;31.30
22827;DHT22;11580;52.562;13.418;2024-01-11T13:38:09;5.90;31.10
22827;DHT22;11580;52.562;13.418;2024-01-11T13:40:38;6.00;31.20
22827;DHT22;11580;52.562;13.418;2024-01-11T13:43:05;6.00;31.00
22827;DHT22;11580;52.562;13.418;2024-01-11T13:45:33;6.00;30.90
22827;DHT22;11580;52.562;13.418;2024-01-11T13:48:02;6.00;30.90
22827;DHT22;11580;52.562;13.418;2024-01-11T13:50:30;6.00;30.70
22827;DHT22;11580;52.562;13.418;2024-01-11T13:52:58;6.00;31.50
22827;DHT22;11580;52.562;13.418;2024-01-11T13:55:25;6.00;30.80
22827;DHT22;11580;52.562;13.418;2024-01-11T13:57:54;6.00;30.90
22827;DHT22;11580;52.562;13.418;2024-01-11T14:00:21;6.00;31.50
22827;DHT22;11580;52.562;13.418;2024-01-11T14:02:48;6.00;30.90
22827;DHT22;11580;52.562;13.418;2024-01-11T14:05:15;6.00;30.70
22827;DHT22;11580;52.562;13.418;2024-01-11T14:07:45;6.00;30.70
22827;DHT22;11580;52.562;13.418;2024-01-11T14:10:14;6.00;30.60
22827;DHT22;11580;52.562;13.418;2024-01-11T14:12:42;6.00;30.60
22827;DHT22;11580;52.562;13.418;2024-01-11T14:15:11;6.00;30.40
22827;DHT22;11580;52.562;13.418;2024-01-11T14:17:39;5.90;30.20
22827;DHT22;11580;52.562;13.418;2024-01-11T14:20:08;5.90;30.20
22827;DHT22;11580;52.562;13.418;2024-01-11T14:22:39;5.90;30.20
22827;DHT22;11580;52.562;13.418;2024-01-11T14:25:07;5.80;30.20
22827;DHT22;11580;52.562;13.418;2024-01-11T14:27:36;5.80;30.40
22827;DHT22;11580;52.562;13.418;2024-01-11T14:30:05;5.80;30.40
22827;DHT22;11580;52.562;13.418;2024-01-11T14:32:34;5.70;30.40
22827;DHT22;11580;52.562;13.418;2024-01-11T14:35:02;5.70;30.60
22827;DHT22;11580;52.562;13.418;2024-01-11T14:37:30;5.70;30.50
22827;DHT22;11580;52.562;13.418;2024-01-11T14:39:57;5.70;30.60
22827;DHT22;11580;52.562;13.418;2024-01-11T14:42:25;5.60;30.70
22827;DHT22;11580;52.562;13.418;2024-01-11T14:44:53;5.60;30.70
22827;DHT22;11580;52.562;13.418;2024-01-11T14:47:20;5.60;30.90
22827;DHT22;11580;52.562;13.418;2024-01-11T14:49:49;5.60;31.60
22827;DHT22;11580;52.562;13.418;2024-01-11T14:52:17;5.60;31.50
22827;DHT22;11580;52.562;13.418;2024-01-11T14:54:45;5.60;30.70
22827;DHT22;11580;52.562;13.418;2024-01-11T14:57:13;5.60;31.30
22827;DHT22;11580;52.562;13.418;2024-01-11T14:59:40;5.50;30.50
22827;DHT22;11580;52.562;13.418;2024-01-11T15:02:08;5.50;30.60
22827;DHT22;11580;52.562;13.418;2024-01-11T15:04:36;5.50;30.80
22827;DHT22;11580;52.562;13.418;2024-01-11T15:07:05;5.50;30.80
22827;DHT22;11580;52.562;13.418;2024-01-11T15:09:34;5.50;30.70
22827;DHT22;11580;52.562;13.418;2024-01-11T15:12:02;5.50;30.60
22827;DHT22;11580;52.562;13.418;2024-01-11T15:14:29;5.40;30.60
22827;DHT22;11580;52.562;13.418;2024-01-11T15:16:56;5.40;30.70
22827;DHT22;11580;52.562;13.418;2024-01-11T15:19:24;5.40;30.80
22827;DHT22;11580;52.562;13.418;2024-01-11T15:21:51;5.30;31.50
22827;DHT22;11580;52.562;13.418;2024-01-11T15:24:20;5.30;30.90
22827;DHT22;11580;52.562;13.418;2024-01-11T15:26:47;5.30;31.10
22827;DHT22;11580;52.562;13.418;2024-01-11T15:29:15;5.30;31.40
22827;DHT22;11580;52.562;13.418;2024-01-11T15:31:43;5.30;31.30
22827;DHT22;11580;52.562;13.418;2024-01-11T15:34:12;5.30;31.40
22827;DHT22;11580;52.562;13.418;2024-01-11T15:36:39;5.30;31.30